Time;durP1;ratioP1;P1;durP2;ratioP2;P2;SDS_P1;SDS_P2;PMS_P1;PMS_P2;Temp;Humidity;BMP_temperature;BMP_pressure;BME280_temperature;BME280_humidity;BME280_pressure;Samples;Min_cycle;Max_cycle;Signal;HPM_P1;HPM_P2
2021/07/02 00:03:44;;;;;;;9.33;4.97;;;;;;;;;;10415820;28;20280;-71
2021/07/02 00:08:48;;;;;;;9.23;4.77;;;;;;;;;;10410020;28;20247;-71
2021/07/02 00:13:51;;;;;;;8.40;4.70;;;;;;;;;;10414316;28;20325;-71
2021/07/02 00:18:54;;;;;;;8.90;4.90;;;;;;;;;;10413678;28;20287;-71
2021/07/02 00:23:57;;;;;;;10.00;5.10;;;;;;;;;;10420372;28;20216;-70
2021/07/02 00:29:00;;;;;;;9.40;5.03;;;;;;;;;;10397120;28;20687;-70
2021/07/02 00:34:03;;;;;;;10.30;4.60;;;;;;;;;;10409024;28;20368;-71
2021/07/02 00:39:08;;;;;;;10.63;5.03;;;;;;;;;;10406494;28;20194;-72
2021/07/02 00:44:10;;;;;;;8.60;4.50;;;;;;;;;;10403467;28;20205;-70
2021/07/02 00:49:13;;;;;;;11.80;4.87;;;;;;;;;;10402311;28;20227;-71
2021/07/02 00:54:17;;;;;;;9.07;4.70;;;;;;;;;;10404149;28;20300;-71
2021/07/02 00:59:20;;;;;;;7.70;4.33;;;;;;;;;;10408261;28;20293;-70
2021/07/02 01:04:23;;;;;;;10.00;4.70;;;;;;;;;;10417720;28;20613;-71
2021/07/02 01:09:27;;;;;;;8.47;4.20;;;;;;;;;;10403646;28;20285;-71
2021/07/02 01:14:30;;;;;;;9.93;4.40;;;;;;;;;;10418697;28;20621;-73
2021/07/02 01:19:32;;;;;;;10.00;4.57;;;;;;;;;;10405502;28;20216;-72
2021/07/02 01:24:36;;;;;;;9.63;4.60;;;;;;;;;;10403200;28;20663;-72
2021/07/02 01:29:39;;;;;;;10.33;5.20;;;;;;;;;;10405198;28;20320;-72
2021/07/02 01:34:41;;;;;;;10.20;5.30;;;;;;;;;;10409164;28;20685;-72
2021/07/02 01:39:45;;;;;;;10.47;5.03;;;;;;;;;;10408898;28;20335;-72
2021/07/02 01:44:48;;;;;;;10.30;5.30;;;;;;;;;;10400654;28;20222;-72
2021/07/02 01:49:50;;;;;;;8.70;4.77;;;;;;;;;;10394769;28;20221;-71
2021/07/02 01:54:54;;;;;;;10.70;5.47;;;;;;;;;;10398559;28;20257;-72
2021/07/02 01:59:57;;;;;;;10.43;5.43;;;;;;;;;;10408012;28;20705;-70
2021/07/02 02:04:59;;;;;;;9.93;5.73;;;;;;;;;;10405560;28;20292;-71
2021/07/02 02:10:04;;;;;;;10.73;5.93;;;;;;;;;;10401524;28;20244;-71
2021/07/02 02:15:07;;;;;;;12.93;6.87;;;;;;;;;;10399548;28;20244;-70
2021/07/02 02:20:10;;;;;;;11.00;6.13;;;;;;;;;;10407674;28;20281;-72
2021/07/02 02:25:15;;;;;;;13.20;6.90;;;;;;;;;;10415403;28;20189;-72
2021/07/02 02:30:18;;;;;;;13.67;6.40;;;;;;;;;;10415377;28;20214;-72
2021/07/02 02:35:21;;;;;;;11.33;5.93;;;;;;;;;;10415098;28;20749;-73
2021/07/02 02:40:25;;;;;;;14.13;6.60;;;;;;;;;;10409311;28;20582;-72
2021/07/02 02:45:27;;;;;;;12.83;6.97;;;;;;;;;;10413474;28;20185;-71
2021/07/02 02:50:30;;;;;;;11.70;7.03;;;;;;;;;;10410482;28;20225;-72
2021/07/02 02:55:34;;;;;;;14.13;7.17;;;;;;;;;;10410521;28;20301;-71
2021/07/02 03:00:36;;;;;;;11.63;6.87;;;;;;;;;;10414556;28;20236;-72
2021/07/02 03:05:39;;;;;;;14.23;7.70;;;;;;;;;;10409959;28;20578;-71
2021/07/02 03:10:43;;;;;;;12.17;6.63;;;;;;;;;;10409639;28;20217;-72
2021/07/02 03:15:46;;;;;;;13.47;7.30;;;;;;;;;;10411568;28;20593;-70
2021/07/02 03:20:48;;;;;;;13.73;7.53;;;;;;;;;;10408374;28;20320;-72
2021/07/02 03:25:52;;;;;;;12.57;7.03;;;;;;;;;;10407049;28;20266;-71
2021/07/02 03:30:55;;;;;;;13.37;7.03;;;;;;;;;;10408518;28;20214;-71
2021/07/02 03:35:57;;;;;;;12.87;6.83;;;;;;;;;;10407869;28;20557;-71
2021/07/02 03:41:01;;;;;;;12.57;7.17;;;;;;;;;;10414050;28;20566;-71
2021/07/02 03:46:04;;;;;;;11.07;6.47;;;;;;;;;;10413593;28;20182;-72
2021/07/02 03:51:07;;;;;;;11.23;6.43;;;;;;;;;;10414501;28;20233;-71
2021/07/02 03:56:11;;;;;;;11.27;6.20;;;;;;;;;;10408232;28;20213;-71
2021/07/02 04:01:13;;;;;;;11.23;6.10;;;;;;;;;;10408258;28;20218;-71
2021/07/02 04:06:16;;;;;;;12.10;6.40;;;;;;;;;;10408679;28;20248;-71
2021/07/02 04:11:20;;;;;;;11.13;6.27;;;;;;;;;;10411312;28;20283;-71
2021/07/02 04:16:25;;;;;;;10.53;6.20;;;;;;;;;;10420814;28;20303;-72
2021/07/02 04:21:48;;;;;;;10.67;5.83;;;;;;;;;;10411855;28;20217;-72
2021/07/02 04:27:13;;;;;;;10.40;5.77;;;;;;;;;;10413972;28;20198;-72
2021/07/02 04:32:15;;;;;;;11.20;6.03;;;;;;;;;;10418512;28;20269;-71
2021/07/02 04:37:18;;;;;;;10.43;6.13;;;;;;;;;;10410770;28;20536;-71
2021/07/02 04:42:22;;;;;;;12.17;6.17;;;;;;;;;;10409016;28;20214;-71
2021/07/02 04:47:25;;;;;;;10.77;6.33;;;;;;;;;;10415877;28;20189;-71
2021/07/02 04:52:27;;;;;;;10.87;5.80;;;;;;;;;;10417699;28;20217;-71
2021/07/02 04:57:32;;;;;;;10.90;6.03;;;;;;;;;;10414001;28;20300;-70
2021/07/02 05:02:35;;;;;;;11.70;6.67;;;;;;;;;;10411197;28;20241;-72
2021/07/02 05:07:39;;;;;;;9.67;5.77;;;;;;;;;;10419783;28;20288;-72
2021/07/02 05:12:43;;;;;;;9.80;5.50;;;;;;;;;;10414313;28;20212;-72
2021/07/02 05:17:46;;;;;;;10.47;5.27;;;;;;;;;;10414700;28;20300;-72
2021/07/02 05:22:49;;;;;;;9.40;5.30;;;;;;;;;;10412703;28;20283;-72
2021/07/02 05:27:54;;;;;;;12.03;5.80;;;;;;;;;;10412787;28;20216;-71
2021/07/02 05:33:04;;;;;;;10.70;5.40;;;;;;;;;;10420248;28;20608;-71
2021/07/02 05:38:06;;;;;;;10.03;5.30;;;;;;;;;;10408264;28;20297;-71
2021/07/02 05:43:10;;;;;;;8.80;5.03;;;;;;;;;;10392877;28;20210;-70
2021/07/02 05:48:16;;;;;;;11.07;5.50;;;;;;;;;;10382319;28;20253;-71
2021/07/02 05:53:18;;;;;;;9.80;5.77;;;;;;;;;;10401158;28;20264;-71
2021/07/02 05:58:22;;;;;;;10.63;5.70;;;;;;;;;;10402747;28;20229;-69
2021/07/02 06:03:25;;;;;;;10.37;5.57;;;;;;;;;;10384702;28;20217;-70
2021/07/02 06:08:49;;;;;;;9.43;5.20;;;;;;;;;;10385808;28;20419;-71
2021/07/02 06:13:53;;;;;;;10.83;5.17;;;;;;;;;;10388514;28;20645;-71
2021/07/02 06:18:56;;;;;;;10.53;5.23;;;;;;;;;;10407324;28;20201;-71
2021/07/02 06:24:00;;;;;;;9.43;5.10;;;;;;;;;;10416461;28;20236;-71
2021/07/02 06:29:04;;;;;;;9.03;5.17;;;;;;;;;;10389576;28;20693;-72
2021/07/02 06:34:06;;;;;;;9.07;4.80;;;;;;;;;;10411193;28;20209;-71
2021/07/02 06:39:10;;;;;;;8.93;4.87;;;;;;;;;;10395637;28;20280;-71
2021/07/02 06:44:14;;;;;;;9.20;4.47;;;;;;;;;;10397714;28;20214;-71
2021/07/02 06:49:17;;;;;;;9.27;4.53;;;;;;;;;;10406480;28;20349;-71
2021/07/02 06:54:20;;;;;;;8.43;4.50;;;;;;;;;;10403527;28;20301;-71
2021/07/02 06:59:24;;;;;;;8.60;4.20;;;;;;;;;;10401982;28;20615;-72
2021/07/02 07:04:29;;;;;;;8.63;4.40;;;;;;;;;;10394822;28;20265;-72
2021/07/02 07:09:32;;;;;;;9.03;4.60;;;;;;;;;;10403687;28;20201;-72
2021/07/02 07:14:36;;;;;;;7.83;4.20;;;;;;;;;;10413287;28;20209;-71
2021/07/02 07:19:38;;;;;;;7.97;4.10;;;;;;;;;;10410842;28;20237;-72
2021/07/02 07:24:41;;;;;;;7.63;4.30;;;;;;;;;;10418068;28;20293;-72
2021/07/02 07:29:45;;;;;;;7.90;3.93;;;;;;;;;;10422792;28;20217;-72
2021/07/02 07:34:50;;;;;;;8.17;4.17;;;;;;;;;;10410814;28;20714;-72
2021/07/02 07:39:52;;;;;;;8.97;4.00;;;;;;;;;;10400534;28;20217;-74
2021/07/02 07:44:56;;;;;;;7.57;4.27;;;;;;;;;;10410790;28;20222;-72
2021/07/02 07:50:00;;;;;;;7.60;3.83;;;;;;;;;;10412565;28;20332;-72
2021/07/02 07:55:03;;;;;;;7.20;4.00;;;;;;;;;;10410054;28;20210;-71
2021/07/02 08:00:07;;;;;;;8.20;4.23;;;;;;;;;;10393637;28;20304;-73
2021/07/02 08:05:18;;;;;;;9.85;4.75;;;;;;;;;;10409889;28;20282;-71
2021/07/02 08:10:22;;;;;;;8.75;3.95;;;;;;;;;;10402912;28;20723;-71
2021/07/02 08:15:26;;;;;;;8.60;4.45;;;;;;;;;;10405018;28;20230;-71
2021/07/02 08:20:29;;;;;;;8.95;4.35;;;;;;;;;;10402148;28;20224;-71
2021/07/02 08:25:31;;;;;;;8.05;4.40;;;;;;;;;;10388919;28;20193;-71
2021/07/02 08:30:36;;;;;;;6.80;3.92;;;;;;;;;;10391575;28;20303;-71
2021/07/02 08:35:39;;;;;;;8.02;3.90;;;;;;;;;;10405797;28;20282;-72
2021/07/02 08:40:42;;;;;;;8.40;4.00;;;;;;;;;;10392495;28;20643;-71
2021/07/02 08:45:46;;;;;;;7.20;3.95;;;;;;;;;;10392538;28;20194;-71
2021/07/02 08:50:52;;;;;;;6.97;3.80;;;;;;;;;;10408694;28;20232;-71
2021/07/02 08:55:56;;;;;;;7.03;4.18;;;;;;;;;;10400692;28;20209;-71
2021/07/02 09:01:05;;;;;;;7.20;4.07;;;;;;;;;;10404573;28;20320;-71
2021/07/02 09:06:15;;;;;;;6.72;4.00;;;;;;;;;;10402204;28;20675;-73
2021/07/02 09:11:27;;;;;;;7.90;4.35;;;;;;;;;;10402183;28;20221;-72
2021/07/02 09:16:36;;;;;;;6.57;4.25;;;;;;;;;;10375180;28;20213;-70
2021/07/02 09:21:39;;;;;;;6.95;3.95;;;;;;;;;;10395316;28;20225;-71
2021/07/02 09:26:43;;;;;;;8.15;4.80;;;;;;;;;;10394941;28;20288;-71
2021/07/02 09:31:56;;;;;;;7.32;4.18;;;;;;;;;;10407539;28;20237;-71
2021/07/02 09:37:18;;;;;;;6.40;4.05;;;;;;;;;;10400848;28;20669;-71
2021/07/02 09:42:24;;;;;;;5.88;3.65;;;;;;;;;;10407111;28;20351;-72
2021/07/02 09:47:29;;;;;;;5.60;3.88;;;;;;;;;;10400186;28;20205;-71
2021/07/02 09:52:32;;;;;;;6.70;3.80;;;;;;;;;;10401165;28;20270;-74
2021/07/02 09:57:35;;;;;;;6.47;3.95;;;;;;;;;;10402125;28;20615;-71
2021/07/02 10:02:39;;;;;;;6.90;3.75;;;;;;;;;;10398147;28;20225;-71
2021/07/02 10:07:55;;;;;;;6.30;3.95;;;;;;;;;;10404165;28;20243;-72
2021/07/02 10:12:59;;;;;;;8.85;5.93;;;;;;;;;;10403323;28;20215;-72
2021/07/02 10:18:03;;;;;;;6.28;4.05;;;;;;;;;;10409661;28;20392;-72
2021/07/02 10:23:06;;;;;;;6.80;3.97;;;;;;;;;;10400737;28;20213;-72
2021/07/02 10:28:10;;;;;;;6.32;4.00;;;;;;;;;;10409693;28;20285;-71
2021/07/02 10:33:15;;;;;;;6.97;3.78;;;;;;;;;;10403320;28;20573;-71
2021/07/02 10:38:18;;;;;;;6.57;4.05;;;;;;;;;;10400425;28;20224;-72
2021/07/02 10:43:21;;;;;;;5.70;3.50;;;;;;;;;;10400755;28;20255;-71
2021/07/02 10:48:47;;;;;;;7.85;4.18;;;;;;;;;;10403642;28;20212;-72
2021/07/02 10:53:50;;;;;;;5.97;3.85;;;;;;;;;;10407608;28;20613;-71
2021/07/02 10:58:53;;;;;;;6.93;3.60;;;;;;;;;;10403693;28;20661;-71
2021/07/02 11:04:18;;;;;;;6.57;4.18;;;;;;;;;;10396530;28;20307;-71
2021/07/02 11:09:41;;;;;;;5.97;3.67;;;;;;;;;;10405581;28;20194;-71
2021/07/02 11:15:03;;;;;;;5.72;3.40;;;;;;;;;;10417105;28;20677;-72
2021/07/02 11:20:28;;;;;;;5.97;3.40;;;;;;;;;;10394868;28;20869;-72
2021/07/02 11:25:35;;;;;;;5.88;3.42;;;;;;;;;;10415219;28;20190;-72
2021/07/02 11:30:39;;;;;;;5.47;3.30;;;;;;;;;;10408681;28;20659;-72
2021/07/02 11:35:43;;;;;;;7.03;3.95;;;;;;;;;;10412040;28;20198;-72
2021/07/02 11:40:47;;;;;;;6.55;4.13;;;;;;;;;;10415093;28;20344;-71
2021/07/02 11:45:54;;;;;;;5.57;3.25;;;;;;;;;;10415100;28;21182;-69
2021/07/02 11:50:59;;;;;;;5.05;3.17;;;;;;;;;;10404702;28;20255;-71
2021/07/02 11:56:02;;;;;;;6.75;3.15;;;;;;;;;;10409753;28;20206;-72
2021/07/02 12:01:07;;;;;;;4.38;3.22;;;;;;;;;;10390461;28;20725;-72
2021/07/02 12:06:11;;;;;;;4.82;3.30;;;;;;;;;;10409074;28;20558;-72
2021/07/02 12:11:13;;;;;;;6.28;3.70;;;;;;;;;;10400981;28;20673;-72
2021/07/02 12:16:16;;;;;;;6.38;3.53;;;;;;;;;;10407076;28;20968;-73
2021/07/02 12:21:25;;;;;;;4.78;2.97;;;;;;;;;;10405067;28;20217;-71
2021/07/02 12:26:29;;;;;;;5.85;3.30;;;;;;;;;;10411302;28;20289;-72
2021/07/02 12:31:33;;;;;;;4.63;2.85;;;;;;;;;;10399318;28;20217;-72
2021/07/02 12:36:50;;;;;;;5.38;3.20;;;;;;;;;;10400085;28;20274;-73
2021/07/02 12:41:53;;;;;;;5.05;3.10;;;;;;;;;;10399818;28;20629;-72
2021/07/02 12:46:55;;;;;;;5.50;3.55;;;;;;;;;;10405784;28;20195;-72
2021/07/02 12:57:25;;;;;;;6.18;3.60;;;;;;;;;;10393711;28;20772;-72
2021/07/02 13:02:29;;;;;;;6.93;3.88;;;;;;;;;;10407200;28;20214;-71
2021/07/02 13:07:46;;;;;;;5.45;3.30;;;;;;;;;;10388093;28;20217;-72
2021/07/02 13:13:02;;;;;;;5.53;3.22;;;;;;;;;;10411739;28;20242;-71
2021/07/02 13:18:05;;;;;;;5.88;3.08;;;;;;;;;;10410572;28;20720;-71
2021/07/02 13:23:09;;;;;;;5.90;3.53;;;;;;;;;;10401301;28;20348;-71
2021/07/02 13:28:19;;;;;;;6.88;4.10;;;;;;;;;;10399381;28;20186;-71
2021/07/02 13:33:22;;;;;;;5.97;3.40;;;;;;;;;;10405274;28;20224;-71
2021/07/02 13:38:26;;;;;;;5.00;2.90;;;;;;;;;;10396104;28;20300;-71
2021/07/02 13:43:29;;;;;;;7.03;3.67;;;;;;;;;;10406768;28;20216;-71
2021/07/02 13:48:32;;;;;;;4.85;3.00;;;;;;;;;;10399585;28;20189;-71
2021/07/02 13:53:36;;;;;;;4.13;2.75;;;;;;;;;;10408989;28;20594;-72
2021/07/02 13:58:39;;;;;;;5.85;3.03;;;;;;;;;;10406711;28;20645;-71
2021/07/02 14:03:44;;;;;;;3.88;2.72;;;;;;;;;;10402439;28;20213;-71
2021/07/02 14:08:47;;;;;;;4.65;2.60;;;;;;;;;;10400560;28;20307;-71
2021/07/02 14:13:50;;;;;;;4.35;2.70;;;;;;;;;;10411272;28;20681;-71
2021/07/02 14:18:53;;;;;;;4.80;2.50;;;;;;;;;;10412544;28;20707;-70
2021/07/02 14:23:57;;;;;;;5.65;2.80;;;;;;;;;;10413449;28;20218;-70
2021/07/02 14:28:59;;;;;;;7.57;4.15;;;;;;;;;;10412505;28;20225;-70
2021/07/02 14:34:03;;;;;;;5.80;3.03;;;;;;;;;;10412056;28;20241;-71
2021/07/02 14:39:07;;;;;;;5.82;3.22;;;;;;;;;;10411070;28;20245;-71
2021/07/02 14:44:09;;;;;;;4.60;2.80;;;;;;;;;;10412898;28;20810;-71
2021/07/02 14:49:12;;;;;;;4.97;2.80;;;;;;;;;;10409071;28;20222;-71
2021/07/02 14:54:17;;;;;;;5.50;2.85;;;;;;;;;;10407834;28;20213;-70
2021/07/02 14:59:19;;;;;;;5.22;2.80;;;;;;;;;;10388540;28;20228;-71
2021/07/02 15:04:22;;;;;;;6.53;2.90;;;;;;;;;;10405531;28;20781;-71
2021/07/02 15:09:26;;;;;;;6.47;3.42;;;;;;;;;;10405837;28;20194;-71
2021/07/02 15:14:29;;;;;;;4.43;2.80;;;;;;;;;;10403456;28;20185;-71
2021/07/02 15:19:31;;;;;;;5.07;2.90;;;;;;;;;;10398967;28;20213;-72
2021/07/02 15:24:35;;;;;;;6.32;3.03;;;;;;;;;;10395932;28;20205;-72
2021/07/02 15:29:59;;;;;;;5.13;2.80;;;;;;;;;;10389816;28;20224;-73
2021/07/02 15:35:02;;;;;;;4.18;2.50;;;;;;;;;;10412201;28;20201;-72
2021/07/02 15:40:07;;;;;;;5.82;3.15;;;;;;;;;;10398194;28;20324;-72
2021/07/02 15:45:10;;;;;;;5.72;3.08;;;;;;;;;;10410063;28;20269;-72
2021/07/02 15:50:13;;;;;;;4.63;2.90;;;;;;;;;;10411190;28;20271;-72
2021/07/02 15:55:17;;;;;;;4.75;2.50;;;;;;;;;;10407736;28;20273;-71
2021/07/02 16:00:19;;;;;;;5.60;3.17;;;;;;;;;;10409203;28;20240;-70
2021/07/02 16:05:23;;;;;;;6.60;3.25;;;;;;;;;;10420130;28;20453;-71
2021/07/02 16:10:27;;;;;;;5.72;3.13;;;;;;;;;;10417155;28;20217;-71
2021/07/02 16:15:30;;;;;;;5.22;2.92;;;;;;;;;;10414120;28;20676;-70
2021/07/02 16:20:36;;;;;;;5.97;3.60;;;;;;;;;;10412269;28;20222;-70
2021/07/02 16:25:40;;;;;;;5.82;3.00;;;;;;;;;;10421958;28;20220;-71
2021/07/02 16:30:44;;;;;;;5.72;3.22;;;;;;;;;;10418713;28;20221;-70
2021/07/02 16:35:46;;;;;;;7.05;3.25;;;;;;;;;;10423961;28;20209;-71
2021/07/02 16:40:50;;;;;;;6.30;3.15;;;;;;;;;;10408419;28;20690;-70
2021/07/02 16:45:53;;;;;;;5.97;3.30;;;;;;;;;;10390079;28;20186;-70
2021/07/02 16:50:55;;;;;;;7.07;3.38;;;;;;;;;;10405836;28;20248;-70
2021/07/02 16:55:59;;;;;;;9.38;6.03;;;;;;;;;;10401704;28;20190;-71
2021/07/02 17:01:02;;;;;;;9.07;3.90;;;;;;;;;;10407952;28;20697;-71
2021/07/02 17:06:05;;;;;;;6.90;3.70;;;;;;;;;;10407633;28;20687;-71
2021/07/02 17:11:09;;;;;;;6.95;3.72;;;;;;;;;;10405021;28;20202;-71
2021/07/02 17:16:11;;;;;;;6.20;3.47;;;;;;;;;;10390599;28;20205;-71
2021/07/02 17:21:14;;;;;;;8.00;4.40;;;;;;;;;;10421289;28;20264;-70
2021/07/02 17:26:19;;;;;;;8.27;3.90;;;;;;;;;;10409573;28;20292;-70
2021/07/02 17:31:22;;;;;;;7.27;4.20;;;;;;;;;;10419302;28;20215;-71
2021/07/02 17:36:28;;;;;;;10.53;5.87;;;;;;;;;;10418535;28;20181;-71
2021/07/02 17:41:34;;;;;;;7.00;3.87;;;;;;;;;;10413445;28;20696;-70
2021/07/02 17:46:38;;;;;;;9.07;5.23;;;;;;;;;;10405039;28;20181;-70
2021/07/02 17:51:41;;;;;;;9.77;5.43;;;;;;;;;;10406051;28;20273;-70
2021/07/02 17:56:54;;;;;;;8.90;5.10;;;;;;;;;;10411989;28;20204;-71
2021/07/02 18:01:57;;;;;;;8.30;4.30;;;;;;;;;;10413530;28;20225;-71
2021/07/02 18:06:59;;;;;;;9.03;4.60;;;;;;;;;;10411821;28;20214;-71
2021/07/02 18:12:04;;;;;;;8.80;5.33;;;;;;;;;;10411917;28;20681;-71
2021/07/02 18:17:06;;;;;;;8.40;4.70;;;;;;;;;;10415592;28;20209;-71
2021/07/02 18:22:11;;;;;;;8.00;3.57;;;;;;;;;;10412320;28;20225;-71
2021/07/02 18:27:15;;;;;;;10.00;4.90;;;;;;;;;;10415412;28;20201;-70
2021/07/02 18:32:17;;;;;;;8.37;5.03;;;;;;;;;;10404083;28;20721;-70
2021/07/02 18:37:20;;;;;;;8.73;4.93;;;;;;;;;;10401926;28;20213;-71
2021/07/02 18:42:24;;;;;;;10.20;5.00;;;;;;;;;;10389514;28;20221;-71
2021/07/02 18:47:26;;;;;;;9.53;4.87;;;;;;;;;;10412000;28;20406;-71
2021/07/02 18:52:29;;;;;;;8.50;4.63;;;;;;;;;;10393505;28;20234;-71
2021/07/02 18:57:33;;;;;;;9.27;4.50;;;;;;;;;;10399370;28;20205;-72
2021/07/02 19:02:36;;;;;;;7.50;3.93;;;;;;;;;;10404186;28;20264;-70
2021/07/02 19:07:39;;;;;;;8.00;4.20;;;;;;;;;;10409017;28;20192;-71
2021/07/02 19:12:43;;;;;;;12.17;7.50;;;;;;;;;;10407817;28;20512;-71
2021/07/02 19:17:47;;;;;;;9.87;5.43;;;;;;;;;;10407633;28;20260;-71
2021/07/02 19:22:50;;;;;;;8.70;4.47;;;;;;;;;;10406497;28;20244;-72
2021/07/02 19:27:54;;;;;;;7.97;3.93;;;;;;;;;;10408131;28;20194;-71
2021/07/02 19:32:57;;;;;;;7.70;4.00;;;;;;;;;;10406888;28;20217;-71
2021/07/02 19:38:01;;;;;;;7.63;3.87;;;;;;;;;;10409654;28;20190;-69
2021/07/02 19:43:05;;;;;;;8.07;4.30;;;;;;;;;;10416382;28;20213;-69
2021/07/02 19:48:07;;;;;;;8.83;4.10;;;;;;;;;;10419196;28;20198;-71
2021/07/02 19:53:10;;;;;;;17.50;12.23;;;;;;;;;;10422707;28;20268;-70
2021/07/02 19:58:14;;;;;;;8.37;4.23;;;;;;;;;;10407912;28;20649;-73
2021/07/02 20:03:17;;;;;;;11.10;7.07;;;;;;;;;;10421840;28;20296;-70
2021/07/02 20:08:20;;;;;;;11.00;6.13;;;;;;;;;;10424597;28;20593;-71
2021/07/02 20:13:24;;;;;;;10.00;4.90;;;;;;;;;;10419887;28;20247;-71
2021/07/02 20:18:27;;;;;;;11.43;6.60;;;;;;;;;;10425465;28;20691;-71
2021/07/02 20:23:32;;;;;;;19.40;13.47;;;;;;;;;;10418523;28;20229;-70
2021/07/02 20:28:36;;;;;;;12.83;8.50;;;;;;;;;;10422698;28;20182;-71
2021/07/02 20:33:39;;;;;;;12.50;7.10;;;;;;;;;;10421641;28;20267;-71
2021/07/02 20:38:41;;;;;;;10.70;6.00;;;;;;;;;;10422335;28;20263;-71
2021/07/02 20:43:45;;;;;;;12.03;6.50;;;;;;;;;;10422720;28;20217;-71
2021/07/02 20:48:48;;;;;;;9.23;4.80;;;;;;;;;;10420300;28;20626;-71
2021/07/02 20:53:50;;;;;;;10.17;4.63;;;;;;;;;;10399883;28;20292;-71
2021/07/02 20:58:58;;;;;;;11.77;6.77;;;;;;;;;;10418665;28;20206;-71
2021/07/02 21:04:01;;;;;;;13.33;7.83;;;;;;;;;;10419120;28;20308;-70
2021/07/02 21:09:03;;;;;;;10.43;5.93;;;;;;;;;;10400040;28;20688;-72
2021/07/02 21:14:09;;;;;;;11.63;6.37;;;;;;;;;;10415417;28;20340;-71
2021/07/02 21:19:12;;;;;;;11.07;6.20;;;;;;;;;;10420032;28;20228;-71
2021/07/02 21:24:16;;;;;;;18.57;11.87;;;;;;;;;;10408321;28;20233;-72
2021/07/02 21:29:20;;;;;;;10.10;6.17;;;;;;;;;;10408873;28;20302;-72
2021/07/02 21:34:22;;;;;;;9.50;5.33;;;;;;;;;;10408471;28;20719;-71
2021/07/02 21:39:25;;;;;;;8.17;4.37;;;;;;;;;;10415773;28;20213;-71
2021/07/02 21:44:29;;;;;;;12.93;7.80;;;;;;;;;;10413334;28;20313;-71
2021/07/02 21:49:31;;;;;;;11.13;6.63;;;;;;;;;;10407289;28;20198;-72
2021/07/02 21:54:34;;;;;;;10.83;6.27;;;;;;;;;;10399974;28;20217;-72
2021/07/02 21:59:37;;;;;;;8.70;3.97;;;;;;;;;;10408976;28;20209;-72
2021/07/02 22:04:39;;;;;;;8.53;4.60;;;;;;;;;;10408093;28;20201;-72
2021/07/02 22:09:42;;;;;;;8.23;4.17;;;;;;;;;;10401340;28;20198;-71
2021/07/02 22:14:46;;;;;;;7.17;4.00;;;;;;;;;;10404966;28;20253;-72
2021/07/02 22:19:49;;;;;;;7.87;3.83;;;;;;;;;;10404973;28;20240;-73
2021/07/02 22:24:51;;;;;;;8.97;4.57;;;;;;;;;;10383505;28;20793;-71
2021/07/02 22:29:55;;;;;;;8.77;4.37;;;;;;;;;;10406421;28;20209;-73
2021/07/02 22:34:58;;;;;;;8.23;4.50;;;;;;;;;;10406237;28;20334;-73
2021/07/02 22:40:01;;;;;;;8.73;4.40;;;;;;;;;;10411824;28;20218;-72
2021/07/02 22:45:06;;;;;;;8.47;4.70;;;;;;;;;;10413739;28;20248;-72
2021/07/02 22:50:09;;;;;;;8.47;4.77;;;;;;;;;;10411197;28;20213;-71
2021/07/02 22:55:12;;;;;;;8.87;5.00;;;;;;;;;;10420308;28;20212;-71
2021/07/02 23:00:17;;;;;;;8.10;3.93;;;;;;;;;;10412050;28;20214;-71
2021/07/02 23:05:19;;;;;;;7.70;4.47;;;;;;;;;;10412029;28;20696;-71
2021/07/02 23:10:22;;;;;;;8.60;4.60;;;;;;;;;;10394911;28;20233;-71
2021/07/02 23:15:26;;;;;;;9.23;4.33;;;;;;;;;;10403090;28;20202;-72
2021/07/02 23:20:29;;;;;;;8.53;4.80;;;;;;;;;;10411190;28;20221;-71
2021/07/02 23:25:31;;;;;;;8.70;4.73;;;;;;;;;;10408469;28;20198;-70
2021/07/02 23:30:37;;;;;;;10.03;4.83;;;;;;;;;;10416634;28;20312;-71
2021/07/02 23:35:39;;;;;;;8.90;4.63;;;;;;;;;;10403702;28;20197;-70
2021/07/02 23:40:42;;;;;;;9.73;5.13;;;;;;;;;;10418911;28;20233;-70
2021/07/02 23:45:46;;;;;;;8.87;4.87;;;;;;;;;;10412907;28;20209;-71
2021/07/02 23:50:48;;;;;;;8.13;4.57;;;;;;;;;;10412847;28;20237;-72
2021/07/02 23:55:51;;;;;;;9.10;4.53;;;;;;;;;;10411711;28;20300;-72
